KTIF

Thomas County Airport

Thedford, Nebraska, USA
METAR KTIF 220455Z AUTO 00000KT 10SM CLR 15/13 A3004 RMK AO2 T01450125
Observed Flight Rules
Jun-22 @ 04:55 UTC (39 minutes ago) Visual Flight Rules
Visibility Clouds
10 miles
  • Clear skies
Temperatures Readings
Current 15°C / 59°F
Dewpoint 13°C / 55°F
Humidity 88%
Altimeter 30.04" Hg
Pressure 1017 hPa
Elevation 892
METAR KTIF 220455Z AUTO 00000KT 10SM CLR 15/13 A3004 RMK AO2 T01450125
Observed Flight Rules
Jun-22 @ 04:55 UTC
(39 minutes ago)
VFR
Clouds
  • Clear skies
Temperature Dewpoint
15°C / 59°F 13°C / 55°F
Humidity Altimeter Pressure
88% 30.04" Hg 1017 hPa